sensor_id;sensor_type;location;lat;lon;timestamp;pressure;altitude;pressure_sealevel;temperature;humidity
7754;BME280;3921;42.266;23.122;2023-01-29T00:37:28;95586.59;;;2.82;72.21
7754;BME280;3921;42.266;23.122;2023-01-29T00:39:58;95556.59;;;2.42;72.28
7754;BME280;3921;42.266;23.122;2023-01-29T00:42:26;95254.13;;;0.76;71.92
7754;BME280;3921;42.266;23.122;2023-01-29T00:45:17;95817.69;;;4.19;72.71
7754;BME280;3921;42.266;23.122;2023-01-29T00:47:45;95507.00;;;2.10;72.59
7754;BME280;3921;42.266;23.122;2023-01-29T00:58:56;95485.34;;;2.03;72.42
7754;BME280;3921;42.266;23.122;2023-01-29T01:01:25;95281.88;;;0.96;72.18
7754;BME280;3921;42.266;23.122;2023-01-29T01:04:08;95285.78;;;0.88;72.51
7754;BME280;3921;42.266;23.122;2023-01-29T01:06:36;95407.81;;;1.77;72.80
7754;BME280;3921;42.266;23.122;2023-01-29T01:09:04;95521.97;;;2.46;72.98
7754;BME280;3921;42.266;23.122;2023-01-29T01:11:48;95380.88;;;1.56;73.05
7754;BME280;3921;42.266;23.122;2023-01-29T01:14:17;95519.69;;;2.21;73.36
7754;BME280;3921;42.266;23.122;2023-01-29T01:16:45;95758.19;;;3.92;72.99
7754;BME280;3921;42.266;23.122;2023-01-29T01:19:13;95565.84;;;2.47;73.14
7754;BME280;3921;42.266;23.122;2023-01-29T01:21:41;95252.69;;;0.54;72.66
7754;BME280;3921;42.266;23.122;2023-01-29T01:24:11;95822.69;;;4.21;73.18
7754;BME280;3921;42.266;23.122;2023-01-29T01:26:39;95280.22;;;0.96;72.73
7754;BME280;3921;42.266;23.122;2023-01-29T01:29:06;95693.94;;;3.38;72.74
7754;BME280;3921;42.266;23.122;2023-01-29T01:31:35;95351.16;;;1.26;72.24
7754;BME280;3921;42.266;23.122;2023-01-29T01:34:02;95395.44;;;1.45;72.57
7754;BME280;3921;42.266;23.122;2023-01-29T01:36:29;95576.94;;;2.60;72.04
7754;BME280;3921;42.266;23.122;2023-01-29T01:39:00;95439.41;;;1.84;71.52
7754;BME280;3921;42.266;23.122;2023-01-29T01:41:29;95265.31;;;0.63;71.51
7754;BME280;3921;42.266;23.122;2023-01-29T01:44:01;95190.28;;;0.33;71.52
7754;BME280;3921;42.266;23.122;2023-01-29T01:46:30;95323.22;;;1.00;71.71
7754;BME280;3921;42.266;23.122;2023-01-29T01:49:02;95667.22;;;3.30;71.15
7754;BME280;3921;42.266;23.122;2023-01-29T01:51:34;95314.31;;;1.06;70.80
7754;BME280;3921;42.266;23.122;2023-01-29T01:54:05;95387.03;;;1.40;71.15
7754;BME280;3921;42.266;23.122;2023-01-29T01:56:39;95595.69;;;2.82;71.75
7754;BME280;3921;42.266;23.122;2023-01-29T01:59:10;95554.34;;;2.51;70.50
7754;BME280;3921;42.266;23.122;2023-01-29T02:04:26;95520.34;;;2.15;70.75
7754;BME280;3921;42.266;23.122;2023-01-29T02:07:17;95849.91;;;4.15;71.02
7754;BME280;3921;42.266;23.122;2023-01-29T02:10:13;95400.75;;;1.59;70.08
7754;BME280;3921;42.266;23.122;2023-01-29T02:12:59;95820.34;;;4.25;71.22
7754;BME280;3921;42.266;23.122;2023-01-29T02:15:36;95482.25;;;2.11;71.54
7754;BME280;3921;42.266;23.122;2023-01-29T02:18:14;95242.78;;;0.54;71.54
7754;BME280;3921;42.266;23.122;2023-01-29T02:20:49;95849.19;;;4.19;72.31
7754;BME280;3921;42.266;23.122;2023-01-29T02:23:42;95395.31;;;1.42;71.44
7754;BME280;3921;42.266;23.122;2023-01-29T02:26:32;95216.22;;;0.47;71.01
7754;BME280;3921;42.266;23.122;2023-01-29T02:29:07;95850.03;;;4.19;71.20
7754;BME280;3921;42.266;23.122;2023-01-29T02:31:58;95312.38;;;0.96;71.23
7754;BME280;3921;42.266;23.122;2023-01-29T02:34:37;95326.84;;;1.11;70.87
7754;BME280;3921;42.266;23.122;2023-01-29T02:37:31;95344.28;;;1.16;70.66
7754;BME280;3921;42.266;23.122;2023-01-29T02:40:09;95331.69;;;1.08;70.52
7754;BME280;3921;42.266;23.122;2023-01-29T03:02:59;95305.06;;;0.69;70.36
7754;BME280;3921;42.266;23.122;2023-01-29T03:05:36;95315.97;;;0.77;71.13
7754;BME280;3921;42.266;23.122;2023-01-29T03:08:13;95316.50;;;0.96;71.15
7754;BME280;3921;42.266;23.122;2023-01-29T03:10:47;95400.44;;;1.48;70.11
7754;BME280;3921;42.266;23.122;2023-01-29T03:32:25;95315.31;;;0.55;72.13
7754;BME280;3921;42.266;23.122;2023-01-29T03:34:57;95308.78;;;0.57;72.00
7754;BME280;3921;42.266;23.122;2023-01-29T03:37:32;95351.31;;;0.73;72.01
7754;BME280;3921;42.266;23.122;2023-01-29T03:40:01;95299.81;;;0.32;72.56
7754;BME280;3921;42.266;23.122;2023-01-29T03:42:48;95363.06;;;1.09;71.86
7754;BME280;3921;42.266;23.122;2023-01-29T03:45:25;95872.91;;;4.06;72.56
7754;BME280;3921;42.266;23.122;2023-01-29T03:48:05;95358.19;;;0.84;72.69
7754;BME280;3921;42.266;23.122;2023-01-29T03:50:53;95779.81;;;3.30;72.94
7754;BME280;3921;42.266;23.122;2023-01-29T03:53:26;95345.34;;;0.67;73.84
7754;BME280;3921;42.266;23.122;2023-01-29T03:56:04;95331.81;;;0.56;73.39
7754;BME280;3921;42.266;23.122;2023-01-29T03:58:56;95317.75;;;0.53;72.99
7754;BME280;3921;42.266;23.122;2023-01-29T04:18:18;95636.53;;;2.63;73.74
7754;BME280;3921;42.266;23.122;2023-01-29T04:20:45;95245.78;;;0.15;73.65
7754;BME280;3921;42.266;23.122;2023-01-29T04:23:21;95331.97;;;0.60;73.53
7754;BME280;3921;42.266;23.122;2023-01-29T04:25:59;95316.16;;;0.55;72.56
7754;BME280;3921;42.266;23.122;2023-01-29T04:31:06;95517.16;;;1.89;72.45
7754;BME280;3921;42.266;23.122;2023-01-29T04:33:42;95742.59;;;3.32;71.75
7754;BME280;3921;42.266;23.122;2023-01-29T04:36:29;95283.03;;;0.50;71.89
7754;BME280;3921;42.266;23.122;2023-01-29T04:39:09;95336.75;;;0.83;71.87
7754;BME280;3921;42.266;23.122;2023-01-29T04:41:48;95342.16;;;0.98;69.83
7754;BME280;3921;42.266;23.122;2023-01-29T04:44:22;95853.16;;;4.12;69.41
7754;BME280;3921;42.266;23.122;2023-01-29T04:47:04;95859.06;;;4.16;68.68
7754;BME280;3921;42.266;23.122;2023-01-29T04:49:44;95350.50;;;0.74;68.81
7754;BME280;3921;42.266;23.122;2023-01-29T04:52:19;95312.00;;;0.54;68.55
7754;BME280;3921;42.266;23.122;2023-01-29T04:54:57;95748.19;;;3.23;69.41
7754;BME280;3921;42.266;23.122;2023-01-29T04:57:39;95325.97;;;0.52;69.28
7754;BME280;3921;42.266;23.122;2023-01-29T05:00:13;95385.94;;;0.73;69.68
7754;BME280;3921;42.266;23.122;2023-01-29T05:02:45;95343.44;;;0.58;70.36
7754;BME280;3921;42.266;23.122;2023-01-29T05:05:19;95466.81;;;1.31;70.45
7754;BME280;3921;42.266;23.122;2023-01-29T05:07:47;95306.53;;;0.36;70.47
7754;BME280;3921;42.266;23.122;2023-01-29T05:10:37;95878.34;;;3.91;70.62
7754;BME280;3921;42.266;23.122;2023-01-29T05:13:09;95577.91;;;2.05;70.24
7754;BME280;3921;42.266;23.122;2023-01-29T05:15:39;95263.59;;;0.34;69.36
7754;BME280;3921;42.266;23.122;2023-01-29T05:18:08;95578.00;;;2.08;69.89
7754;BME280;3921;42.266;23.122;2023-01-29T05:20:38;95351.84;;;0.92;69.47
7754;BME280;3921;42.266;23.122;2023-01-29T08:48:12;95703.56;;;2.64;77.83
7754;BME280;3921;42.266;23.122;2023-01-29T08:53:25;95851.03;;;3.31;78.42
7754;BME280;3921;42.266;23.122;2023-01-29T08:55:53;95934.56;;;3.88;77.29
7754;BME280;3921;42.266;23.122;2023-01-29T08:58:23;95474.16;;;1.28;76.20
7754;BME280;3921;42.266;23.122;2023-01-29T09:00:50;95939.47;;;3.85;76.42
7754;BME280;3921;42.266;23.122;2023-01-29T09:03:18;95854.81;;;3.49;77.08
7754;BME280;3921;42.266;23.122;2023-01-29T09:05:46;95852.25;;;3.45;76.92
7754;BME280;3921;42.266;23.122;2023-01-29T09:08:13;95837.41;;;3.49;76.09
7754;BME280;3921;42.266;23.122;2023-01-29T09:10:40;96021.66;;;4.52;77.06
7754;BME280;3921;42.266;23.122;2023-01-29T09:13:12;96019.31;;;4.57;76.89
7754;BME280;3921;42.266;23.122;2023-01-29T09:15:46;96010.31;;;4.62;75.33
7754;BME280;3921;42.266;23.122;2023-01-29T09:18:57;95467.56;;;1.00;76.00
7754;BME280;3921;42.266;23.122;2023-01-29T09:22:02;96016.63;;;4.49;75.16
7754;BME280;3921;42.266;23.122;2023-01-29T09:24:56;95719.47;;;2.43;75.63
7754;BME280;3921;42.266;23.122;2023-01-29T09:27:33;95730.00;;;2.64;75.55
7754;BME280;3921;42.266;23.122;2023-01-29T09:30:00;95556.50;;;1.50;75.34
7754;BME280;3921;42.266;23.122;2023-01-29T09:32:27;95746.47;;;2.62;75.47
7754;BME280;3921;42.266;23.122;2023-01-29T09:34:56;95696.25;;;2.40;74.86
7754;BME280;3921;42.266;23.122;2023-01-29T09:37:24;95717.16;;;2.77;73.98
7754;BME280;3921;42.266;23.122;2023-01-29T09:39:51;95895.72;;;3.91;73.01
7754;BME280;3921;42.266;23.122;2023-01-29T09:42:23;95699.81;;;2.79;72.27
7754;BME280;3921;42.266;23.122;2023-01-29T09:44:58;96003.78;;;4.66;72.25
7754;BME280;3921;42.266;23.122;2023-01-29T09:47:40;95980.97;;;4.50;71.48
7754;BME280;3921;42.266;23.122;2023-01-29T09:50:16;95572.03;;;2.01;70.73
7754;BME280;3921;42.266;23.122;2023-01-29T09:52:48;95615.47;;;2.49;70.43
7754;BME280;3921;42.266;23.122;2023-01-29T09:55:21;95658.50;;;2.81;70.38
7754;BME280;3921;42.266;23.122;2023-01-29T09:57:51;95897.06;;;4.12;70.38
7754;BME280;3921;42.266;23.122;2023-01-29T10:00:23;95942.97;;;4.56;69.99
7754;BME280;3921;42.266;23.122;2023-01-29T10:03:18;95982.50;;;4.78;69.60
7754;BME280;3921;42.266;23.122;2023-01-29T10:06:10;95816.84;;;3.84;69.15
7754;BME280;3921;42.266;23.122;2023-01-29T10:08:58;95711.78;;;3.25;69.89
7754;BME280;3921;42.266;23.122;2023-01-29T10:11:37;95649.53;;;2.86;69.76
7754;BME280;3921;42.266;23.122;2023-01-29T10:14:15;95496.50;;;1.89;70.25
7754;BME280;3921;42.266;23.122;2023-01-29T10:16:58;95848.16;;;4.11;70.00
7754;BME280;3921;42.266;23.122;2023-01-29T10:19:42;95879.53;;;4.40;69.61
7754;BME280;3921;42.266;23.122;2023-01-29T10:22:27;95602.69;;;2.65;68.29
7754;BME280;3921;42.266;23.122;2023-01-29T10:25:03;95962.03;;;4.89;68.59
7754;BME280;3921;42.266;23.122;2023-01-29T10:27:33;95760.16;;;3.71;68.36
7754;BME280;3921;42.266;23.122;2023-01-29T10:30:06;95816.81;;;4.17;68.26
7754;BME280;3921;42.266;23.122;2023-01-29T10:32:36;95794.41;;;4.17;68.09
7754;BME280;3921;42.266;23.122;2023-01-29T10:35:10;95787.47;;;4.03;69.00
7754;BME280;3921;42.266;23.122;2023-01-29T10:37:43;95506.00;;;2.35;68.27
7754;BME280;3921;42.266;23.122;2023-01-29T10:40:21;95732.81;;;4.06;67.76
7754;BME280;3921;42.266;23.122;2023-01-29T10:42:52;95813.94;;;4.73;68.01
7754;BME280;3921;42.266;23.122;2023-01-29T10:45:29;95644.56;;;3.51;68.54
7754;BME280;3921;42.266;23.122;2023-01-29T10:48:22;95928.06;;;5.28;67.87
7754;BME280;3921;42.266;23.122;2023-01-29T10:51:02;95844.75;;;4.78;67.87
7754;BME280;3921;42.266;23.122;2023-01-29T10:53:42;95741.50;;;4.23;67.91
7754;BME280;3921;42.266;23.122;2023-01-29T10:56:28;95565.13;;;3.17;69.07
7754;BME280;3921;42.266;23.122;2023-01-29T10:59:09;95834.97;;;4.48;68.53
7754;BME280;3921;42.266;23.122;2023-01-29T11:01:43;95942.75;;;5.18;69.59
7754;BME280;3921;42.266;23.122;2023-01-29T11:04:12;95816.78;;;4.52;69.15
7754;BME280;3921;42.266;23.122;2023-01-29T11:06:40;95740.59;;;4.19;69.44
7754;BME280;3921;42.266;23.122;2023-01-29T11:09:15;95542.91;;;2.89;69.20
7754;BME280;3921;42.266;23.122;2023-01-29T11:11:49;95754.63;;;4.17;69.74
7754;BME280;3921;42.266;23.122;2023-01-29T11:14:21;95450.38;;;2.25;70.02
7754;BME280;3921;42.266;23.122;2023-01-29T11:16:48;95555.09;;;3.14;69.56
7754;BME280;3921;42.266;23.122;2023-01-29T11:19:36;95293.94;;;1.47;68.83
7754;BME280;3921;42.266;23.122;2023-01-29T11:22:03;95671.72;;;3.79;68.16
7754;BME280;3921;42.266;23.122;2023-01-29T11:24:35;95532.28;;;2.93;67.90
7754;BME280;3921;42.266;23.122;2023-01-29T11:27:13;95838.38;;;4.89;68.31
7754;BME280;3921;42.266;23.122;2023-01-29T11:29:42;95786.63;;;4.76;66.83
7754;BME280;3921;42.266;23.122;2023-01-29T11:32:24;95534.53;;;3.20;66.64
7754;BME280;3921;42.266;23.122;2023-01-29T11:34:56;95637.78;;;3.80;66.59
7754;BME280;3921;42.266;23.122;2023-01-29T11:37:32;95383.63;;;2.33;66.98
7754;BME280;3921;42.266;23.122;2023-01-29T11:40:01;95754.69;;;4.57;67.04
7754;BME280;3921;42.266;23.122;2023-01-29T11:42:38;95550.53;;;3.31;67.02
7754;BME280;3921;42.266;23.122;2023-01-29T11:45:24;95800.06;;;4.84;67.27
7754;BME280;3921;42.266;23.122;2023-01-29T11:47:53;95784.66;;;4.61;67.49
7754;BME280;3921;42.266;23.122;2023-01-29T11:50:23;95899.03;;;5.32;68.18
7754;BME280;3921;42.266;23.122;2023-01-29T11:52:52;95598.50;;;3.29;68.30
7754;BME280;3921;42.266;23.122;2023-01-29T11:55:23;95684.88;;;4.11;68.02
7754;BME280;3921;42.266;23.122;2023-01-29T11:57:52;95716.50;;;4.18;67.76
7754;BME280;3921;42.266;23.122;2023-01-29T12:00:23;95622.97;;;3.50;67.91
7754;BME280;3921;42.266;23.122;2023-01-29T12:02:53;95305.63;;;1.51;67.24
7754;BME280;3921;42.266;23.122;2023-01-29T12:05:23;95804.53;;;4.60;67.17
7754;BME280;3921;42.266;23.122;2023-01-29T12:07:53;95784.50;;;4.53;67.69
7754;BME280;3921;42.266;23.122;2023-01-29T12:10:34;95467.66;;;2.55;67.83
7754;BME280;3921;42.266;23.122;2023-01-29T12:13:04;95800.84;;;4.44;68.35
7754;BME280;3921;42.266;23.122;2023-01-29T12:15:32;95842.16;;;4.73;67.48
7754;BME280;3921;42.266;23.122;2023-01-29T12:18:06;95640.56;;;3.57;67.99
7754;BME280;3921;42.266;23.122;2023-01-29T12:20:41;95807.53;;;4.46;68.53
7754;BME280;3921;42.266;23.122;2023-01-29T12:23:24;95724.53;;;4.07;68.32
7754;BME280;3921;42.266;23.122;2023-01-29T12:26:00;95536.28;;;2.88;68.85
7754;BME280;3921;42.266;23.122;2023-01-29T12:28:36;95894.00;;;4.91;68.47
7754;BME280;3921;42.266;23.122;2023-01-29T12:31:26;95367.34;;;1.76;68.53
7754;BME280;3921;42.266;23.122;2023-01-29T12:34:07;95343.94;;;1.65;68.56
7754;BME280;3921;42.266;23.122;2023-01-29T12:36:45;95613.03;;;3.15;68.40
7754;BME280;3921;42.266;23.122;2023-01-29T12:39:19;95651.19;;;3.52;68.40
7754;BME280;3921;42.266;23.122;2023-01-29T12:41:51;95281.31;;;1.38;68.19
7754;BME280;3921;42.266;23.122;2023-01-29T12:44:21;95603.38;;;3.26;68.55
7754;BME280;3921;42.266;23.122;2023-01-29T12:46:53;95728.53;;;4.00;68.43
7754;BME280;3921;42.266;23.122;2023-01-29T12:49:27;95382.44;;;1.84;69.09
7754;BME280;3921;42.266;23.122;2023-01-29T12:52:00;95912.47;;;4.99;68.55
7754;BME280;3921;42.266;23.122;2023-01-29T12:54:38;95865.94;;;4.98;69.13
7754;BME280;3921;42.266;23.122;2023-01-29T12:57:17;95695.31;;;3.96;68.66
7754;BME280;3921;42.266;23.122;2023-01-29T12:59:48;95758.19;;;4.29;68.61
7754;BME280;3921;42.266;23.122;2023-01-29T13:02:26;95668.91;;;3.65;68.26
7754;BME280;3921;42.266;23.122;2023-01-29T13:04:59;95721.03;;;3.97;68.77
7754;BME280;3921;42.266;23.122;2023-01-29T13:07:31;95765.63;;;4.27;68.93
7754;BME280;3921;42.266;23.122;2023-01-29T13:10:03;95832.34;;;4.79;68.10
7754;BME280;3921;42.266;23.122;2023-01-29T13:12:35;95768.25;;;4.33;68.13
7754;BME280;3921;42.266;23.122;2023-01-29T13:15:13;95674.22;;;3.79;67.65
7754;BME280;3921;42.266;23.122;2023-01-29T13:17:46;95429.78;;;2.28;67.53
7754;BME280;3921;42.266;23.122;2023-01-29T13:20:17;95374.09;;;1.82;67.89
7754;BME280;3921;42.266;23.122;2023-01-29T13:22:47;95539.91;;;3.02;68.10
7754;BME280;3921;42.266;23.122;2023-01-29T13:25:16;95843.34;;;4.89;68.63
7754;BME280;3921;42.266;23.122;2023-01-29T13:27:46;95572.00;;;2.95;68.63
7754;BME280;3921;42.266;23.122;2023-01-29T13:30:25;95849.13;;;4.88;68.82
7754;BME280;3921;42.266;23.122;2023-01-29T13:32:53;95613.94;;;3.52;67.82
7754;BME280;3921;42.266;23.122;2023-01-29T13:35:34;95766.59;;;4.32;68.83
7754;BME280;3921;42.266;23.122;2023-01-29T13:38:02;95639.88;;;3.63;69.15
7754;BME280;3921;42.266;23.122;2023-01-29T13:40:31;95637.88;;;3.50;68.46
7754;BME280;3921;42.266;23.122;2023-01-29T13:43:02;95570.78;;;3.12;68.77
7754;BME280;3921;42.266;23.122;2023-01-29T13:45:33;95771.91;;;4.47;68.86
7754;BME280;3921;42.266;23.122;2023-01-29T13:48:09;95885.38;;;5.15;68.76
7754;BME280;3921;42.266;23.122;2023-01-29T13:50:39;95434.31;;;2.11;68.91
7754;BME280;3921;42.266;23.122;2023-01-29T13:53:18;95806.00;;;4.51;69.16
7754;BME280;3921;42.266;23.122;2023-01-29T13:55:47;95513.97;;;2.56;69.36
7754;BME280;3921;42.266;23.122;2023-01-29T13:58:17;95844.41;;;4.63;69.56
7754;BME280;3921;42.266;23.122;2023-01-29T14:00:50;95729.34;;;3.99;69.65
7754;BME280;3921;42.266;23.122;2023-01-29T14:03:51;95894.13;;;4.97;69.66
7754;BME280;3921;42.266;23.122;2023-01-29T14:06:38;95821.69;;;4.47;69.92
7754;BME280;3921;42.266;23.122;2023-01-29T14:09:30;95892.34;;;4.92;68.61
7754;BME280;3921;42.266;23.122;2023-01-29T14:11:57;95695.47;;;3.68;68.59
7754;BME280;3921;42.266;23.122;2023-01-29T14:14:58;95911.56;;;4.97;68.85
7754;BME280;3921;42.266;23.122;2023-01-29T14:17:27;95745.88;;;3.97;68.86
7754;BME280;3921;42.266;23.122;2023-01-29T14:20:00;95904.09;;;4.97;68.77
7754;BME280;3921;42.266;23.122;2023-01-29T14:22:29;95708.06;;;3.74;68.64
7754;BME280;3921;42.266;23.122;2023-01-29T14:25:00;95683.00;;;3.66;68.10
7754;BME280;3921;42.266;23.122;2023-01-29T14:27:28;95736.94;;;3.70;68.19
7754;BME280;3921;42.266;23.122;2023-01-29T14:30:16;95409.97;;;1.65;67.99
7754;BME280;3921;42.266;23.122;2023-01-29T14:32:48;95435.75;;;1.71;68.28
7754;BME280;3921;42.266;23.122;2023-01-29T14:35:21;95581.69;;;2.85;68.65
7754;BME280;3921;42.266;23.122;2023-01-29T14:37:50;95765.19;;;4.07;68.60
7754;BME280;3921;42.266;23.122;2023-01-29T14:40:21;95808.72;;;4.24;69.46
7754;BME280;3921;42.266;23.122;2023-01-29T14:42:56;95476.53;;;2.14;68.81
7754;BME280;3921;42.266;23.122;2023-01-29T14:45:27;95852.22;;;4.42;68.60
7754;BME280;3921;42.266;23.122;2023-01-29T14:48:03;95948.88;;;4.94;68.40
7754;BME280;3921;42.266;23.122;2023-01-29T14:50:57;95926.34;;;4.90;68.44
7754;BME280;3921;42.266;23.122;2023-01-29T14:53:42;95316.22;;;1.15;68.83
7754;BME280;3921;42.266;23.122;2023-01-29T14:56:13;95962.84;;;4.89;68.47
7754;BME280;3921;42.266;23.122;2023-01-29T14:58:44;95931.31;;;4.88;68.28
7754;BME280;3921;42.266;23.122;2023-01-29T15:01:18;95737.06;;;3.75;67.11
7754;BME280;3921;42.266;23.122;2023-01-29T15:03:48;95850.13;;;4.24;67.73
7754;BME280;3921;42.266;23.122;2023-01-29T15:06:22;95826.00;;;4.20;68.53
7754;BME280;3921;42.266;23.122;2023-01-29T15:08:55;95902.53;;;4.65;68.39
7754;BME280;3921;42.266;23.122;2023-01-29T15:11:33;95934.63;;;4.89;68.34
7754;BME280;3921;42.266;23.122;2023-01-29T15:14:16;95446.75;;;1.81;68.52
7754;BME280;3921;42.266;23.122;2023-01-29T15:16:58;95625.03;;;2.98;67.65
7754;BME280;3921;42.266;23.122;2023-01-29T15:19:28;95846.31;;;4.37;67.85
7754;BME280;3921;42.266;23.122;2023-01-29T15:22:02;95870.50;;;4.42;68.06
7754;BME280;3921;42.266;23.122;2023-01-29T15:24:29;95885.84;;;4.61;68.26
7754;BME280;3921;42.266;23.122;2023-01-29T15:26:57;95700.34;;;3.30;68.29
7754;BME280;3921;42.266;23.122;2023-01-29T15:29:26;95391.72;;;1.31;67.66
7754;BME280;3921;42.266;23.122;2023-01-29T15:31:55;95392.91;;;1.44;67.04
7754;BME280;3921;42.266;23.122;2023-01-29T15:34:23;95762.72;;;3.74;66.56
7754;BME280;3921;42.266;23.122;2023-01-29T15:36:50;95638.59;;;2.78;67.07
7754;BME280;3921;42.266;23.122;2023-01-29T15:39:19;95790.88;;;3.73;67.73
7754;BME280;3921;42.266;23.122;2023-01-29T15:41:48;95643.34;;;3.02;67.52
7754;BME280;3921;42.266;23.122;2023-01-29T15:44:18;95580.63;;;2.44;67.20
7754;BME280;3921;42.266;23.122;2023-01-29T15:46:50;95547.66;;;2.17;67.31
7754;BME280;3921;42.266;23.122;2023-01-29T15:49:30;95874.41;;;4.34;67.04
7754;BME280;3921;42.266;23.122;2023-01-29T15:52:02;95825.47;;;3.98;66.79
7754;BME280;3921;42.266;23.122;2023-01-29T15:54:32;95644.06;;;2.66;67.45
7754;BME280;3921;42.266;23.122;2023-01-29T15:57:01;95857.13;;;4.06;67.24
7754;BME280;3921;42.266;23.122;2023-01-29T15:59:32;95974.75;;;4.66;67.48
7754;BME280;3921;42.266;23.122;2023-01-29T16:02:17;95837.19;;;4.03;67.04
7754;BME280;3921;42.266;23.122;2023-01-29T16:04:57;95433.59;;;1.53;66.86
7754;BME280;3921;42.266;23.122;2023-01-29T16:07:25;95588.41;;;2.26;67.93
7754;BME280;3921;42.266;23.122;2023-01-29T16:09:53;95387.41;;;0.95;68.08
7754;BME280;3921;42.266;23.122;2023-01-29T16:12:21;96009.59;;;4.66;68.03
7754;BME280;3921;42.266;23.122;2023-01-29T16:14:49;95792.66;;;3.45;67.77
7754;BME280;3921;42.266;23.122;2023-01-29T16:17:22;95946.81;;;4.43;67.45
7754;BME280;3921;42.266;23.122;2023-01-29T16:19:59;95477.09;;;1.44;68.11
7754;BME280;3921;42.266;23.122;2023-01-29T16:22:31;95907.47;;;3.97;67.70
7754;BME280;3921;42.266;23.122;2023-01-29T16:25:04;95839.91;;;3.79;67.57
7754;BME280;3921;42.266;23.122;2023-01-29T16:27:32;95784.88;;;3.33;67.75
7754;BME280;3921;42.266;23.122;2023-01-29T16:30:00;95892.94;;;3.79;67.58
7754;BME280;3921;42.266;23.122;2023-01-29T16:32:28;95859.81;;;3.80;67.86
7754;BME280;3921;42.266;23.122;2023-01-29T16:34:59;95420.22;;;1.18;67.63
7754;BME280;3921;42.266;23.122;2023-01-29T16:37:28;95984.72;;;4.35;67.16
7754;BME280;3921;42.266;23.122;2023-01-29T16:39:56;95874.06;;;3.87;67.43
7754;BME280;3921;42.266;23.122;2023-01-29T16:42:29;95565.19;;;1.94;67.28
7754;BME280;3921;42.266;23.122;2023-01-29T16:44:59;95913.06;;;4.20;66.97
7754;BME280;3921;42.266;23.122;2023-01-29T16:47:29;96007.75;;;4.59;67.21
7754;BME280;3921;42.266;23.122;2023-01-29T16:50:03;95939.75;;;4.27;68.12
7754;BME280;3921;42.266;23.122;2023-01-29T16:52:54;95734.38;;;3.03;67.10
7754;BME280;3921;42.266;23.122;2023-01-29T16:55:23;95849.91;;;3.50;67.45
7754;BME280;3921;42.266;23.122;2023-01-29T16:57:52;95735.03;;;2.97;67.02
7754;BME280;3921;42.266;23.122;2023-01-29T17:00:23;95405.47;;;0.93;66.70
7754;BME280;3921;42.266;23.122;2023-01-29T17:02:53;95472.34;;;1.23;66.88
7754;BME280;3921;42.266;23.122;2023-01-29T17:05:26;95613.84;;;1.91;66.91
7754;BME280;3921;42.266;23.122;2023-01-29T17:07:55;95713.84;;;2.78;66.74
7754;BME280;3921;42.266;23.122;2023-01-29T17:10:24;95774.03;;;3.00;67.68
7754;BME280;3921;42.266;23.122;2023-01-29T17:12:57;95656.47;;;2.36;67.69
7754;BME280;3921;42.266;23.122;2023-01-29T17:15:34;95616.66;;;2.01;67.63
7754;BME280;3921;42.266;23.122;2023-01-29T17:18:03;95685.66;;;2.46;67.45
7754;BME280;3921;42.266;23.122;2023-01-29T17:20:44;95669.75;;;2.38;67.19
7754;BME280;3921;42.266;23.122;2023-01-29T17:23:13;95732.91;;;2.51;67.91
7754;BME280;3921;42.266;23.122;2023-01-29T17:25:40;95484.75;;;1.24;66.80
7754;BME280;3921;42.266;23.122;2023-01-29T17:28:15;95734.47;;;2.76;67.22
7754;BME280;3921;42.266;23.122;2023-01-29T17:30:46;95431.84;;;0.92;66.77
7754;BME280;3921;42.266;23.122;2023-01-29T17:33:14;95602.94;;;1.84;66.18
7754;BME280;3921;42.266;23.122;2023-01-29T17:35:44;95874.19;;;3.30;65.54
7754;BME280;3921;42.266;23.122;2023-01-29T17:38:13;95976.50;;;4.06;67.08
7754;BME280;3921;42.266;23.122;2023-01-29T17:40:42;95732.34;;;2.59;66.37
7754;BME280;3921;42.266;23.122;2023-01-29T17:43:12;95546.41;;;1.44;66.46
7754;BME280;3921;42.266;23.122;2023-01-29T17:45:39;95653.38;;;2.15;66.07
7754;BME280;3921;42.266;23.122;2023-01-29T17:48:10;95636.66;;;2.07;66.34
7754;BME280;3921;42.266;23.122;2023-01-29T17:50:43;95828.44;;;3.22;66.51
7754;BME280;3921;42.266;23.122;2023-01-29T17:53:13;95778.16;;;2.99;66.05
7754;BME280;3921;42.266;23.122;2023-01-29T17:55:40;95871.28;;;3.45;66.03
7754;BME280;3921;42.266;23.122;2023-01-29T17:58:14;95697.97;;;2.42;66.58
7754;BME280;3921;42.266;23.122;2023-01-29T18:00:43;95570.13;;;1.64;66.46
7754;BME280;3921;42.266;23.122;2023-01-29T18:03:13;95833.25;;;3.16;66.59
7754;BME280;3921;42.266;23.122;2023-01-29T18:05:45;95425.44;;;0.72;66.62
7754;BME280;3921;42.266;23.122;2023-01-29T18:08:15;95517.72;;;1.23;66.54
7754;BME280;3921;42.266;23.122;2023-01-29T18:10:44;95871.13;;;3.39;66.03
7754;BME280;3921;42.266;23.122;2023-01-29T18:13:12;95728.94;;;2.27;66.69
7754;BME280;3921;42.266;23.122;2023-01-29T18:15:39;95921.84;;;3.47;67.21
7754;BME280;3921;42.266;23.122;2023-01-29T18:18:10;95933.47;;;3.78;66.95
7754;BME280;3921;42.266;23.122;2023-01-29T18:20:38;95845.81;;;3.22;67.05
7754;BME280;3921;42.266;23.122;2023-01-29T18:23:08;95782.47;;;2.76;67.02
7754;BME280;3921;42.266;23.122;2023-01-29T18:25:35;95786.97;;;2.89;67.01
7754;BME280;3921;42.266;23.122;2023-01-29T18:28:03;95580.28;;;1.45;67.82
7754;BME280;3921;42.266;23.122;2023-01-29T18:30:31;95734.66;;;2.25;67.36
7754;BME280;3921;42.266;23.122;2023-01-29T18:32:58;96036.75;;;4.27;67.44
7754;BME280;3921;42.266;23.122;2023-01-29T18:35:27;95750.94;;;2.74;66.89
7754;BME280;3921;42.266;23.122;2023-01-29T18:37:55;95935.19;;;3.79;66.48
7754;BME280;3921;42.266;23.122;2023-01-29T18:40:23;95511.19;;;1.25;66.55
7754;BME280;3921;42.266;23.122;2023-01-29T18:42:53;95931.78;;;3.77;67.08
7754;BME280;3921;42.266;23.122;2023-01-29T18:45:20;95843.19;;;3.17;67.13
7754;BME280;3921;42.266;23.122;2023-01-29T18:47:48;95601.63;;;1.68;67.15
7754;BME280;3921;42.266;23.122;2023-01-29T18:50:15;95722.66;;;2.38;67.23
7754;BME280;3921;42.266;23.122;2023-01-29T18:52:44;95937.88;;;3.57;67.48
7754;BME280;3921;42.266;23.122;2023-01-29T18:55:14;95805.22;;;2.91;67.16
7754;BME280;3921;42.266;23.122;2023-01-29T18:57:43;95716.22;;;2.45;66.64
7754;BME280;3921;42.266;23.122;2023-01-29T19:00:11;95695.34;;;2.10;67.04
7754;BME280;3921;42.266;23.122;2023-01-29T19:02:38;95575.34;;;1.19;67.01
7754;BME280;3921;42.266;23.122;2023-01-29T19:05:07;95923.13;;;3.63;67.28
7754;BME280;3921;42.266;23.122;2023-01-29T19:07:35;96020.84;;;4.20;67.78
7754;BME280;3921;42.266;23.122;2023-01-29T19:10:20;95809.47;;;2.67;67.56
7754;BME280;3921;42.266;23.122;2023-01-29T19:12:52;95754.72;;;2.61;67.77